Time;durP1;ratioP1;P1;durP2;ratioP2;P2;SDS_P1;SDS_P2;PMS_P1;PMS_P2;Temp;Humidity;BMP_temperature;BMP_pressure;BME280_temperature;BME280_humidity;BME280_pressure;Samples;Min_cycle;Max_cycle;Signal;HPM_P1;HPM_P2
2023/03/26 00:00:42;;;;;;;31.43;6.93;;;17.30;58.60;;;;;;5069242;28;20192;-91
2023/03/26 00:03:11;;;;;;;38.80;7.20;;;17.40;58.70;;;;;;5066263;28;20212;-92
2023/03/26 00:05:39;;;;;;;30.07;6.93;;;17.30;58.60;;;;;;5073361;28;20206;-93
2023/03/26 00:08:07;;;;;;;36.83;7.03;;;17.30;58.70;;;;;;5090112;28;20205;-93
2023/03/26 00:10:35;;;;;;;43.30;7.23;;;17.30;58.70;;;;;;5077601;28;20250;-92
2023/03/26 00:13:03;;;;;;;39.63;6.87;;;17.30;58.70;;;;;;5066993;28;20238;-93
2023/03/26 00:15:30;;;;;;;48.23;7.83;;;17.30;58.60;;;;;;5068755;28;20255;-93
2023/03/26 00:17:59;;;;;;;41.80;7.53;;;17.30;58.70;;;;;;5068833;28;20347;-93
2023/03/26 00:20:31;;;;;;;47.73;7.50;;;17.30;58.70;;;;;;5067388;28;20246;-92
2023/03/26 00:23:00;;;;;;;41.43;7.90;;;17.30;58.60;;;;;;5068834;28;20192;-93
2023/03/26 00:25:27;;;;;;;41.73;7.50;;;17.30;58.70;;;;;;5068774;28;20209;-93
2023/03/26 00:27:54;;;;;;;34.40;7.20;;;17.30;58.70;;;;;;5068981;28;20333;-92
2023/03/26 00:30:27;;;;;;;35.67;6.53;;;17.30;58.70;;;;;;5068641;28;20300;-93
2023/03/26 00:32:54;;;;;;;43.27;7.50;;;17.30;58.70;;;;;;5068806;28;20215;-93
2023/03/26 00:35:22;;;;;;;44.80;7.73;;;17.30;58.70;;;;;;5068287;28;20239;-94
2023/03/26 00:37:52;;;;;;;46.80;7.97;;;17.20;58.60;;;;;;5056577;28;20233;-94
2023/03/26 00:40:22;;;;;;;38.20;7.10;;;17.30;58.70;;;;;;5048952;28;20205;-93
2023/03/26 00:42:49;;;;;;;49.40;7.63;;;17.30;58.70;;;;;;5057678;28;20205;-93
2023/03/26 00:45:20;;;;;;;45.37;7.27;;;17.30;58.80;;;;;;5069201;28;20207;-93
2023/03/26 00:47:47;;;;;;;44.20;7.30;;;17.20;58.60;;;;;;5068891;28;20220;-93
2023/03/26 00:50:15;;;;;;;42.03;7.53;;;17.20;58.70;;;;;;5068790;28;20252;-93
2023/03/26 00:52:42;;;;;;;35.00;6.80;;;17.20;58.70;;;;;;5067600;28;20499;-93
2023/03/26 00:55:11;;;;;;;39.77;7.47;;;17.20;58.70;;;;;;5067262;28;20219;-92
2023/03/26 00:57:39;;;;;;;40.57;7.17;;;17.20;58.70;;;;;;5068790;28;20740;-94
2023/03/26 01:00:15;;;;;;;42.20;7.47;;;17.20;58.70;;;;;;5068385;28;20557;-93
2023/03/26 01:02:45;;;;;;;46.63;7.83;;;17.20;58.70;;;;;;5068144;28;20211;-93
2023/03/26 01:05:42;;;;;;;33.63;6.53;;;17.20;58.70;;;;;;5068272;28;20289;-94
2023/03/26 01:08:22;;;;;;;45.03;7.10;;;17.20;58.70;;;;;;5066251;28;20210;-93
2023/03/26 01:10:52;;;;;;;38.47;7.43;;;17.20;58.70;;;;;;5068403;28;20209;-93
2023/03/26 01:13:24;;;;;;;61.67;8.77;;;17.20;58.70;;;;;;5068009;28;20200;-93
2023/03/26 01:15:51;;;;;;;45.73;7.60;;;17.20;58.70;;;;;;5070491;28;20251;-93
2023/03/26 01:18:25;;;;;;;40.90;7.13;;;17.20;58.70;;;;;;5071831;28;20239;-93
2023/03/26 01:20:57;;;;;;;29.30;6.37;;;17.20;58.80;;;;;;5073353;28;20303;-93
2023/03/26 01:23:30;;;;;;;39.77;6.67;;;17.20;58.80;;;;;;5071638;28;20236;-93
2023/03/26 01:26:09;;;;;;;36.27;6.53;;;17.10;58.60;;;;;;5071422;28;20211;-93
2023/03/26 01:28:40;;;;;;;44.17;7.20;;;17.10;58.70;;;;;;5071841;28;20202;-93
2023/03/26 01:31:13;;;;;;;43.37;7.47;;;17.10;59.30;;;;;;5072008;28;20235;-93
2023/03/26 01:33:46;;;;;;;38.03;6.43;;;17.10;58.60;;;;;;5072560;28;20206;-92
2023/03/26 01:36:22;;;;;;;42.77;6.73;;;17.10;58.70;;;;;;5067615;28;20197;-93
2023/03/26 01:38:58;;;;;;;34.03;6.50;;;17.10;58.70;;;;;;5058454;28;20218;-93
2023/03/26 01:41:32;;;;;;;44.10;7.30;;;17.10;58.70;;;;;;5072013;28;20655;-92
2023/03/26 01:44:06;;;;;;;44.50;7.00;;;17.10;58.60;;;;;;5071431;28;20230;-93
2023/03/26 01:46:35;;;;;;;44.67;7.43;;;17.10;58.60;;;;;;5071966;28;20207;-93
2023/03/26 01:49:03;;;;;;;53.40;7.70;;;17.10;58.70;;;;;;5071153;28;20303;-93
2023/03/26 01:51:32;;;;;;;44.50;7.40;;;17.10;58.70;;;;;;5091686;28;20216;-93
2023/03/26 01:54:04;;;;;;;28.83;5.70;;;17.10;58.70;;;;;;5071543;28;20646;-92
2023/03/26 01:56:42;;;;;;;53.33;7.97;;;17.10;58.70;;;;;;5065231;28;20671;-96
2023/03/26 01:59:23;;;;;;;27.10;6.10;;;17.10;58.70;;;;;;5064897;28;20323;-96
2023/03/26 02:01:59;;;;;;;23.00;5.40;;;17.00;58.60;;;;;;5078550;28;20294;-94
2023/03/26 02:04:32;;;;;;;46.80;7.53;;;17.00;58.60;;;;;;5077150;28;20216;-96
2023/03/26 02:07:06;;;;;;;28.10;6.53;;;17.00;58.60;;;;;;5072149;28;20225;-96
2023/03/26 02:09:51;;;;;;;25.97;5.57;;;17.00;58.60;;;;;;5072607;28;20239;-95
2023/03/26 02:12:22;;;;;;;35.10;6.60;;;17.10;58.70;;;;;;5072060;28;20235;-95
2023/03/26 02:14:49;;;;;;;29.00;6.20;;;17.10;58.70;;;;;;5072924;28;20320;-91
2023/03/26 02:17:17;;;;;;;36.80;6.70;;;17.00;58.60;;;;;;5071558;28;20216;-91
2023/03/26 02:19:47;;;;;;;36.13;6.43;;;17.00;58.60;;;;;;5067394;28;20330;-92
2023/03/26 02:22:15;;;;;;;32.47;6.40;;;17.00;58.60;;;;;;5069116;28;20292;-92
2023/03/26 02:24:42;;;;;;;28.43;6.10;;;17.00;58.70;;;;;;5071100;28;20216;-93
2023/03/26 02:27:11;;;;;;;37.37;6.77;;;17.00;58.60;;;;;;5070181;28;20199;-92
2023/03/26 02:29:41;;;;;;;33.93;6.00;;;17.00;58.60;;;;;;5070429;28;20197;-90
2023/03/26 02:32:12;;;;;;;26.60;6.00;;;17.00;58.60;;;;;;5053663;28;20699;-90
2023/03/26 02:34:39;;;;;;;29.00;6.27;;;17.00;58.60;;;;;;5069046;28;20207;-92
2023/03/26 02:37:06;;;;;;;27.37;5.90;;;17.00;59.30;;;;;;5074975;28;20200;-93
2023/03/26 02:39:37;;;;;;;34.00;6.57;;;17.00;58.70;;;;;;5089412;28;20237;-92
2023/03/26 02:42:04;;;;;;;27.97;5.80;;;17.00;58.60;;;;;;5081446;28;20284;-93
2023/03/26 02:44:31;;;;;;;35.67;6.30;;;17.00;58.60;;;;;;5087613;28;20203;-94
2023/03/26 02:47:00;;;;;;;26.60;5.30;;;17.00;58.60;;;;;;5070992;28;20235;-94
2023/03/26 02:49:27;;;;;;;34.97;6.87;;;16.90;58.60;;;;;;5069657;28;20289;-93
2023/03/26 02:51:57;;;;;;;25.93;5.90;;;17.00;58.60;;;;;;5070901;28;20264;-93
2023/03/26 02:54:26;;;;;;;34.80;6.47;;;16.90;58.60;;;;;;5068866;28;20202;-91
2023/03/26 02:56:53;;;;;;;22.23;5.23;;;16.90;58.60;;;;;;5075392;28;20631;-92
2023/03/26 02:59:20;;;;;;;27.93;6.10;;;16.90;58.60;;;;;;5070671;28;20219;-91
2023/03/26 03:01:47;;;;;;;51.70;7.30;;;16.90;58.60;;;;;;5080884;28;20650;-92
2023/03/26 03:04:17;;;;;;;26.50;5.80;;;16.90;58.60;;;;;;5086263;28;20217;-92
2023/03/26 03:06:44;;;;;;;32.93;5.80;;;16.90;58.60;;;;;;5076063;28;20203;-91
2023/03/26 03:09:12;;;;;;;40.40;6.70;;;16.90;58.60;;;;;;5055537;28;20802;-90
2023/03/26 03:11:40;;;;;;;31.20;6.27;;;16.90;58.60;;;;;;5077856;28;20222;-93
2023/03/26 03:14:07;;;;;;;56.03;8.37;;;16.90;58.60;;;;;;5078576;28;20201;-93
2023/03/26 03:16:34;;;;;;;57.00;7.97;;;16.90;58.60;;;;;;5079901;28;20203;-92
2023/03/26 03:19:01;;;;;;;27.37;5.80;;;16.90;58.60;;;;;;5081006;28;20212;-91
2023/03/26 03:21:30;;;;;;;30.00;6.30;;;16.90;58.60;;;;;;5087720;28;20227;-92
2023/03/26 03:23:57;;;;;;;47.87;7.27;;;16.90;58.60;;;;;;5083875;28;20390;-91
2023/03/26 03:26:28;;;;;;;28.33;5.40;;;16.90;58.60;;;;;;5075920;28;20534;-89
2023/03/26 03:28:56;;;;;;;27.40;5.77;;;16.90;58.60;;;;;;5070344;28;20203;-91
2023/03/26 03:31:25;;;;;;;26.27;5.37;;;16.80;58.50;;;;;;5070212;28;20197;-91
2023/03/26 03:33:52;;;;;;;34.10;6.43;;;16.90;58.60;;;;;;5087271;28;20266;-91
2023/03/26 03:36:21;;;;;;;37.37;6.33;;;16.90;58.60;;;;;;5084140;28;20731;-91
2023/03/26 03:38:50;;;;;;;44.67;7.20;;;16.90;58.60;;;;;;5051580;28;20274;-91
2023/03/26 03:41:17;;;;;;;31.70;6.50;;;16.80;58.50;;;;;;5077064;28;20212;-91
2023/03/26 03:43:45;;;;;;;31.13;6.13;;;16.80;58.50;;;;;;5059631;28;20382;-91
2023/03/26 03:46:12;;;;;;;30.53;6.73;;;16.80;58.50;;;;;;5082064;28;20292;-91
2023/03/26 03:48:46;;;;;;;34.87;6.00;;;16.90;58.60;;;;;;5080641;28;20199;-91
2023/03/26 03:51:13;;;;;;;35.37;6.40;;;16.90;58.60;;;;;;5088250;28;20217;-91
2023/03/26 03:53:40;;;;;;;38.90;6.60;;;16.90;58.60;;;;;;5086757;28;20200;-92
2023/03/26 03:56:09;;;;;;;49.57;7.63;;;16.90;58.60;;;;;;5085163;28;20211;-91
2023/03/26 03:58:37;;;;;;;40.43;6.43;;;16.80;58.50;;;;;;5062531;28;20210;-91
2023/03/26 04:01:03;;;;;;;56.33;7.70;;;16.80;58.60;;;;;;5085476;28;20295;-91
2023/03/26 04:03:37;;;;;;;24.67;6.03;;;16.80;58.60;;;;;;5086752;28;20211;-92
2023/03/26 04:06:05;;;;;;;35.40;6.27;;;16.80;58.60;;;;;;5087895;28;20208;-91
2023/03/26 04:08:33;;;;;;;29.57;5.90;;;16.80;58.60;;;;;;5084758;28;20301;-92
2023/03/26 04:11:00;;;;;;;33.47;6.07;;;16.80;58.60;;;;;;5084892;28;20207;-92
2023/03/26 04:13:29;;;;;;;27.63;6.00;;;16.80;58.60;;;;;;5077210;28;20208;-92
2023/03/26 04:15:56;;;;;;;28.53;5.90;;;16.80;58.50;;;;;;5076442;28;20286;-92
2023/03/26 04:18:22;;;;;;;44.27;7.13;;;16.80;58.60;;;;;;5083377;28;20291;-91
2023/03/26 04:20:49;;;;;;;30.23;5.53;;;16.80;58.60;;;;;;5074226;28;20199;-92
2023/03/26 04:23:17;;;;;;;39.07;6.63;;;16.80;58.60;;;;;;5070311;28;20209;-92
2023/03/26 04:25:47;;;;;;;25.50;5.50;;;16.80;58.60;;;;;;5086690;28;20195;-93
2023/03/26 04:28:30;;;;;;;26.17;5.87;;;16.80;58.60;;;;;;5076998;28;20201;-93
2023/03/26 04:31:00;;;;;;;27.23;5.27;;;16.80;58.60;;;;;;5074458;28;20211;-93
2023/03/26 04:33:29;;;;;;;35.57;6.90;;;16.80;58.60;;;;;;5085680;28;20353;-93
2023/03/26 04:36:00;;;;;;;29.53;5.57;;;16.80;58.60;;;;;;5072577;28;20199;-93
2023/03/26 04:38:32;;;;;;;31.20;5.93;;;16.70;58.50;;;;;;5088908;28;20274;-93
2023/03/26 04:41:01;;;;;;;35.00;6.13;;;16.70;58.50;;;;;;5084259;28;20256;-92
2023/03/26 04:43:30;;;;;;;47.37;6.87;;;16.70;58.50;;;;;;5068629;28;20215;-92
2023/03/26 04:46:02;;;;;;;33.90;6.00;;;16.80;58.60;;;;;;5081125;28;20198;-93
2023/03/26 04:48:29;;;;;;;37.87;6.57;;;16.70;58.50;;;;;;5088588;28;20206;-92
2023/03/26 04:50:56;;;;;;;36.70;6.03;;;16.70;58.50;;;;;;5086779;28;20300;-93
2023/03/26 04:53:24;;;;;;;26.43;5.73;;;16.70;58.50;;;;;;5088172;28;20217;-92
2023/03/26 04:55:55;;;;;;;48.87;7.47;;;16.70;58.50;;;;;;5084467;28;20244;-93
2023/03/26 04:58:31;;;;;;;46.97;7.27;;;16.70;58.50;;;;;;5068802;28;20207;-92
2023/03/26 05:01:00;;;;;;;29.53;5.90;;;16.70;58.50;;;;;;5071619;28;20215;-92
2023/03/26 05:03:30;;;;;;;31.83;6.17;;;16.70;58.50;;;;;;5058881;28;20213;-92
2023/03/26 05:05:58;;;;;;;34.73;6.30;;;16.70;58.60;;;;;;5069206;28;20573;-92
2023/03/26 05:08:27;;;;;;;27.97;5.57;;;16.70;58.50;;;;;;5071816;28;20212;-92
2023/03/26 05:10:54;;;;;;;27.87;5.57;;;16.70;58.50;;;;;;5068047;28;20730;-92
2023/03/26 05:13:21;;;;;;;35.43;5.90;;;16.70;58.50;;;;;;5067966;28;20235;-92
2023/03/26 05:15:48;;;;;;;32.00;6.00;;;16.70;58.50;;;;;;5061534;28;20209;-92
2023/03/26 05:18:16;;;;;;;32.13;5.77;;;16.70;58.50;;;;;;5067894;28;20209;-92
2023/03/26 05:20:44;;;;;;;31.30;6.30;;;16.70;58.50;;;;;;5067864;28;20318;-92
2023/03/26 05:23:10;;;;;;;42.50;6.80;;;16.70;58.60;;;;;;5066678;28;20201;-92
2023/03/26 05:25:38;;;;;;;29.80;5.40;;;16.70;58.50;;;;;;5072779;28;20231;-91
2023/03/26 05:28:05;;;;;;;53.40;7.87;;;16.70;58.50;;;;;;5065657;28;20197;-92
2023/03/26 05:30:32;;;;;;;32.43;6.20;;;16.70;58.50;;;;;;5066042;28;20209;-92
2023/03/26 05:33:03;;;;;;;33.90;6.20;;;16.70;58.60;;;;;;5067890;28;20208;-92
2023/03/26 05:35:32;;;;;;;29.43;6.13;;;16.70;58.60;;;;;;5068037;28;20238;-92
2023/03/26 05:38:00;;;;;;;27.03;5.40;;;16.70;58.60;;;;;;5086942;28;20203;-92
2023/03/26 05:40:27;;;;;;;32.83;6.00;;;16.70;58.60;;;;;;5087848;28;20260;-92
2023/03/26 05:42:54;;;;;;;32.13;6.03;;;16.70;58.60;;;;;;5087789;28;20204;-92
2023/03/26 05:45:21;;;;;;;29.50;6.03;;;16.70;58.60;;;;;;5073613;28;20229;-92
2023/03/26 05:47:50;;;;;;;25.67;5.83;;;16.70;58.60;;;;;;5085650;28;20213;-92
2023/03/26 05:50:20;;;;;;;35.80;6.40;;;16.70;58.60;;;;;;5085270;28;20207;-92
2023/03/26 05:52:48;;;;;;;24.43;5.53;;;16.70;58.50;;;;;;5088211;28;20670;-92
2023/03/26 05:55:17;;;;;;;23.97;5.70;;;16.70;58.50;;;;;;5077771;28;20228;-92
2023/03/26 05:57:44;;;;;;;39.93;6.90;;;16.70;58.60;;;;;;5067894;28;20228;-91
2023/03/26 06:00:12;;;;;;;29.53;5.80;;;16.70;58.50;;;;;;5073779;28;20220;-92
2023/03/26 06:02:41;;;;;;;68.63;9.27;;;16.70;58.60;;;;;;5089782;28;20305;-91
2023/03/26 06:05:08;;;;;;;33.07;5.97;;;16.70;58.50;;;;;;5091086;28;20191;-92
2023/03/26 06:07:36;;;;;;;24.03;5.23;;;16.70;58.50;;;;;;5091741;28;20278;-91
2023/03/26 06:10:04;;;;;;;25.50;5.50;;;16.70;58.50;;;;;;5075810;28;20231;-92
2023/03/26 06:12:31;;;;;;;25.80;5.20;;;16.70;58.50;;;;;;5091362;28;20216;-92
2023/03/26 06:14:58;;;;;;;27.83;5.73;;;16.70;58.50;;;;;;5069195;28;20569;-93
2023/03/26 06:17:25;;;;;;;41.37;6.67;;;16.70;58.50;;;;;;5084378;28;20214;-93
2023/03/26 06:19:52;;;;;;;40.63;6.47;;;16.70;58.50;;;;;;5082461;28;20762;-94
2023/03/26 06:22:19;;;;;;;43.17;7.47;;;16.70;58.50;;;;;;5091134;28;20213;-94
2023/03/26 06:24:46;;;;;;;38.43;6.33;;;16.70;58.50;;;;;;5091418;28;20679;-91
2023/03/26 06:27:15;;;;;;;37.97;6.20;;;16.70;58.50;;;;;;5091329;28;20207;-92
2023/03/26 06:29:42;;;;;;;45.77;7.03;;;16.70;58.50;;;;;;5069780;28;20217;-90
2023/03/26 06:32:09;;;;;;;41.03;6.53;;;16.70;58.50;;;;;;5091160;28;20201;-92
2023/03/26 06:34:36;;;;;;;31.10;6.10;;;16.70;58.50;;;;;;5071564;28;20247;-92
2023/03/26 06:37:03;;;;;;;38.93;6.17;;;16.60;58.40;;;;;;5071174;28;20202;-92
2023/03/26 06:39:29;;;;;;;49.87;7.33;;;16.60;58.40;;;;;;5070140;28;20592;-91
2023/03/26 06:41:56;;;;;;;46.70;7.47;;;16.70;58.40;;;;;;5051398;28;20198;-91
2023/03/26 06:44:25;;;;;;;36.37;6.33;;;16.60;58.40;;;;;;5069314;28;20640;-92
2023/03/26 06:46:53;;;;;;;56.47;7.57;;;16.60;58.40;;;;;;5072189;28;20206;-92
2023/03/26 06:49:20;;;;;;;41.50;6.57;;;16.60;58.30;;;;;;5069909;28;20199;-92
2023/03/26 06:51:49;;;;;;;45.43;6.57;;;16.70;58.40;;;;;;5070226;28;20203;-92
2023/03/26 06:54:17;;;;;;;34.73;5.63;;;16.70;58.40;;;;;;5070961;28;20205;-91
2023/03/26 06:56:44;;;;;;;37.30;6.00;;;16.60;58.40;;;;;;5070218;28;20234;-89
2023/03/26 06:59:11;;;;;;;45.67;6.63;;;16.60;58.40;;;;;;5070281;28;20672;-90
2023/03/26 07:01:39;;;;;;;33.00;6.37;;;16.60;58.40;;;;;;5067254;28;20196;-89
2023/03/26 07:04:06;;;;;;;46.97;6.50;;;16.60;58.40;;;;;;5062246;28;20594;-89
2023/03/26 07:06:33;;;;;;;41.17;6.00;;;16.60;58.40;;;;;;5070278;28;20796;-88
2023/03/26 07:09:00;;;;;;;49.27;7.07;;;16.60;58.40;;;;;;5070035;28;20276;-89
2023/03/26 07:11:28;;;;;;;38.60;6.10;;;16.70;58.40;;;;;;5069537;28;20211;-88
2023/03/26 07:13:56;;;;;;;35.10;5.63;;;16.60;58.40;;;;;;5069331;28;20249;-89
2023/03/26 07:16:23;;;;;;;41.37;6.30;;;16.60;58.40;;;;;;5067792;28;20208;-88
2023/03/26 07:18:53;;;;;;;36.83;6.03;;;16.60;58.40;;;;;;5070072;28;20204;-89
2023/03/26 07:21:23;;;;;;;36.27;6.10;;;16.60;58.30;;;;;;5068893;28;20242;-89
2023/03/26 07:23:51;;;;;;;35.07;5.70;;;16.60;58.40;;;;;;5069751;28;20295;-92
2023/03/26 07:26:27;;;;;;;38.50;6.03;;;16.60;58.40;;;;;;5065032;28;20256;-91
2023/03/26 07:29:01;;;;;;;32.33;5.37;;;16.50;58.30;;;;;;5068156;28;20214;-92
2023/03/26 07:31:34;;;;;;;44.03;6.47;;;16.60;58.40;;;;;;5068315;28;20211;-92
2023/03/26 07:34:13;;;;;;;32.87;5.30;;;16.50;58.30;;;;;;5070367;28;20239;-92
2023/03/26 07:36:47;;;;;;;40.77;6.23;;;16.60;58.40;;;;;;5069669;28;20224;-92
2023/03/26 07:39:26;;;;;;;39.60;6.43;;;16.60;58.40;;;;;;5070316;28;20208;-92
2023/03/26 07:42:01;;;;;;;39.27;6.40;;;16.50;58.30;;;;;;5068826;28;20238;-92
2023/03/26 07:44:49;;;;;;;30.83;5.77;;;16.60;58.40;;;;;;5068573;28;20201;-92
2023/03/26 07:47:24;;;;;;;37.03;5.83;;;16.60;58.40;;;;;;5068340;28;20209;-91
2023/03/26 07:49:56;;;;;;;36.47;5.63;;;16.50;58.30;;;;;;5069528;28;20220;-91
2023/03/26 07:52:24;;;;;;;33.60;6.10;;;16.50;58.30;;;;;;5069070;28;20298;-92
2023/03/26 07:54:51;;;;;;;38.43;6.27;;;16.50;58.40;;;;;;5068722;28;20214;-92
2023/03/26 07:57:27;;;;;;;47.47;7.13;;;16.50;58.40;;;;;;5065975;28;20211;-92
2023/03/26 08:00:00;;;;;;;28.40;5.13;;;16.50;58.40;;;;;;5058600;28;20234;-92
2023/03/26 08:02:41;;;;;;;29.40;5.70;;;16.50;58.40;;;;;;5049674;28;20308;-92
2023/03/26 08:05:18;;;;;;;41.03;6.57;;;16.50;58.70;;;;;;5059908;28;20283;-92
2023/03/26 08:07:58;;;;;;;41.33;6.27;;;16.50;58.40;;;;;;5056304;28;20572;-92
2023/03/26 08:10:31;;;;;;;39.20;6.20;;;16.50;58.40;;;;;;5049530;28;20291;-91
2023/03/26 08:13:27;;;;;;;38.10;6.17;;;16.50;58.40;;;;;;5050202;28;20210;-91
2023/03/26 08:16:04;;;;;;;50.00;7.37;;;16.50;58.40;;;;;;5053932;28;20205;-92
2023/03/26 08:18:44;;;;;;;35.27;5.97;;;16.50;58.40;;;;;;5068813;28;20231;-92
2023/03/26 08:21:19;;;;;;;40.20;5.80;;;16.50;58.40;;;;;;5083317;28;20230;-92
2023/03/26 08:23:56;;;;;;;41.20;6.93;;;16.50;58.40;;;;;;5076830;28;20203;-92
2023/03/26 08:26:33;;;;;;;33.07;5.87;;;16.50;58.40;;;;;;5068651;28;20196;-92
2023/03/26 08:29:10;;;;;;;37.17;6.17;;;16.50;58.40;;;;;;5084732;28;20206;-91
2023/03/26 08:31:47;;;;;;;33.10;5.83;;;16.40;58.30;;;;;;5071917;28;20291;-92
2023/03/26 08:34:15;;;;;;;43.07;6.47;;;16.40;58.30;;;;;;5071647;28;20687;-92
2023/03/26 08:36:43;;;;;;;40.53;6.17;;;16.50;58.40;;;;;;5067800;28;20229;-91
2023/03/26 08:39:10;;;;;;;40.60;6.33;;;16.50;58.40;;;;;;5068799;28;20566;-91
2023/03/26 08:42:14;;;;;;;32.50;5.57;;;16.40;58.40;;;;;;5066220;28;20244;-92
2023/03/26 08:45:07;;;;;;;40.43;6.30;;;16.40;58.30;;;;;;5050166;28;20288;-92
2023/03/26 08:48:07;;;;;;;46.23;6.70;;;16.50;58.40;;;;;;5068767;28;20202;-92
2023/03/26 08:51:06;;;;;;;33.33;5.40;;;16.50;58.40;;;;;;5068081;28;20656;-92
2023/03/26 08:54:27;;;;;;;48.83;6.87;;;16.50;58.40;;;;;;5027177;28;20315;-91
2023/03/26 08:57:10;;;;;;;33.73;5.67;;;16.50;58.40;;;;;;5068923;28;20187;-92
2023/03/26 09:00:17;;;;;;;30.80;5.37;;;16.50;58.40;;;;;;5067416;28;20210;-91
2023/03/26 09:03:16;;;;;;;35.27;5.63;;;16.40;58.40;;;;;;5048527;28;20314;-92
2023/03/26 09:06:37;;;;;;;33.53;5.70;;;16.40;58.40;;;;;;5037897;28;20533;-92
2023/03/26 09:09:51;;;;;;;37.10;6.23;;;16.40;58.40;;;;;;5064433;28;20756;-92
2023/03/26 09:13:00;;;;;;;36.13;5.93;;;16.40;58.40;;;;;;5048379;28;20240;-92
2023/03/26 09:16:09;;;;;;;36.67;6.37;;;16.40;58.40;;;;;;5036803;28;20206;-91
2023/03/26 09:19:18;;;;;;;38.43;6.37;;;16.40;58.40;;;;;;5078320;28;20690;-92
2023/03/26 09:22:24;;;;;;;51.27;7.23;;;16.50;58.50;;;;;;5022293;28;20334;-93
2023/03/26 09:25:25;;;;;;;45.13;6.80;;;16.40;58.50;;;;;;5059520;28;20208;-92
2023/03/26 09:28:26;;;;;;;35.37;6.40;;;16.50;58.60;;;;;;5077105;28;20203;-94
2023/03/26 09:31:34;;;;;;;42.33;6.77;;;16.40;58.50;;;;;;5089052;28;20658;-94
2023/03/26 09:34:27;;;;;;;35.90;6.27;;;16.40;58.60;;;;;;5046201;28;20812;-93
2023/03/26 09:36:56;;;;;;;37.67;6.43;;;16.40;58.60;;;;;;5041732;28;20846;-94
2023/03/26 09:39:36;;;;;;;49.47;6.93;;;16.40;58.60;;;;;;5059974;28;20500;-96
2023/03/26 09:42:23;;;;;;;39.53;6.70;;;16.40;58.60;;;;;;5073168;28;20227;-96
2023/03/26 09:45:33;;;;;;;44.37;6.70;;;16.40;58.60;;;;;;5075129;28;20198;-93
2023/03/26 09:48:25;;;;;;;35.30;5.87;;;16.40;58.60;;;;;;5071770;28;20291;-95
2023/03/26 09:51:03;;;;;;;28.73;5.60;;;16.40;58.60;;;;;;5072927;28;20215;-94
2023/03/26 09:54:01;;;;;;;32.43;6.00;;;16.40;58.60;;;;;;5072187;28;20912;-94
2023/03/26 09:56:43;;;;;;;32.60;6.10;;;16.40;58.70;;;;;;5073623;28;20214;-96
2023/03/26 09:59:26;;;;;;;39.37;6.80;;;16.40;58.70;;;;;;5059591;28;20597;-96
2023/03/26 10:02:03;;;;;;;51.23;7.27;;;16.40;58.70;;;;;;5074943;28;20255;-96
2023/03/26 10:05:03;;;;;;;36.83;6.03;;;16.40;58.70;;;;;;5088315;28;20196;-96
2023/03/26 10:08:04;;;;;;;29.03;5.93;;;16.40;58.80;;;;;;5058361;28;20235;-96
2023/03/26 10:10:58;;;;;;;43.27;6.93;;;16.50;58.90;;;;;;5072747;28;20227;-96
2023/03/26 10:13:34;;;;;;;31.43;5.93;;;16.60;58.90;;;;;;5072732;28;20207;-96
2023/03/26 10:16:53;;;;;;;36.60;6.57;;;16.50;58.80;;;;;;5073347;28;20209;-96
2023/03/26 10:22:50;;;;;;;28.57;5.73;;;16.40;58.70;;;;;;5069342;28;20664;-95
2023/03/26 10:25:33;;;;;;;37.70;6.37;;;16.50;58.80;;;;;;5073585;28;20279;-96
2023/03/26 10:31:35;;;;;;;35.93;6.50;;;16.50;58.80;;;;;;5070248;28;20226;-95
2023/03/26 10:34:13;;;;;;;26.83;5.77;;;16.50;58.80;;;;;;5073726;28;20236;-96
2023/03/26 10:37:10;;;;;;;40.40;6.73;;;16.50;58.80;;;;;;5068660;28;20221;-95
2023/03/26 10:40:05;;;;;;;34.90;6.07;;;16.50;58.90;;;;;;5069643;28;20219;-96
2023/03/26 10:42:50;;;;;;;41.83;6.47;;;16.50;58.90;;;;;;5072599;28;20206;-95
2023/03/26 10:45:31;;;;;;;39.67;6.60;;;16.50;59.50;;;;;;5072352;28;20292;-95
2023/03/26 10:51:50;;;;;;;36.10;6.57;;;16.50;58.90;;;;;;5053230;28;20188;-96
2023/03/26 10:54:27;;;;;;;36.37;6.20;;;16.50;58.90;;;;;;5052651;28;20211;-95
2023/03/26 10:56:56;;;;;;;34.83;6.37;;;16.50;58.90;;;;;;5052272;28;20529;-96
2023/03/26 10:59:26;;;;;;;31.67;5.80;;;16.60;58.90;;;;;;5070503;28;20216;-96
2023/03/26 11:02:04;;;;;;;33.37;6.57;;;16.50;58.90;;;;;;5071769;28;20279;-96
2023/03/26 11:04:40;;;;;;;29.73;5.90;;;16.60;59.00;;;;;;5072581;28;20213;-96
2023/03/26 11:10:08;;;;;;;30.67;5.53;;;16.60;59.00;;;;;;5069829;28;20682;-96
2023/03/26 11:12:43;;;;;;;33.43;5.80;;;16.60;58.90;;;;;;5071514;28;20281;-96
2023/03/26 11:15:22;;;;;;;57.13;7.73;;;16.70;59.00;;;;;;5069046;28;20226;-95
2023/03/26 11:18:01;;;;;;;33.13;6.10;;;16.60;59.00;;;;;;5070942;28;20428;-96
2023/03/26 11:20:37;;;;;;;35.77;6.07;;;16.60;59.00;;;;;;5073005;28;20219;-96
2023/03/26 11:23:25;;;;;;;35.50;6.37;;;16.60;59.00;;;;;;5073494;28;20228;-96
2023/03/26 11:29:44;;;;;;;36.97;6.40;;;16.60;59.00;;;;;;5053988;28;20568;-96
2023/03/26 11:32:39;;;;;;;36.93;5.97;;;16.70;59.00;;;;;;5071758;28;20267;-95
2023/03/26 11:35:14;;;;;;;32.93;6.07;;;16.70;59.00;;;;;;5071956;28;20278;-95
2023/03/26 11:37:44;;;;;;;36.07;6.03;;;16.70;59.00;;;;;;5071533;28;20232;-96
2023/03/26 11:40:15;;;;;;;27.93;5.40;;;16.70;59.00;;;;;;5071894;28;20299;-95
2023/03/26 11:45:55;;;;;;;39.80;6.53;;;16.70;59.00;;;;;;5067318;28;20213;-96
2023/03/26 11:48:26;;;;;;;35.13;6.20;;;16.70;59.00;;;;;;5075728;28;20256;-96
2023/03/26 11:51:01;;;;;;;36.83;6.22;;;16.70;59.00;;;;;;5069114;28;20937;-96
2023/03/26 11:53:33;;;;;;;30.50;5.73;;;16.70;59.20;;;;;;5070367;28;20674;-95
2023/03/26 11:56:04;;;;;;;35.20;6.13;;;16.60;59.20;;;;;;5071431;28;20278;-96
2023/03/26 11:58:35;;;;;;;40.07;6.33;;;16.70;59.20;;;;;;5071211;28;20199;-96
2023/03/26 12:01:15;;;;;;;30.73;5.87;;;16.70;59.10;;;;;;5071877;28;20650;-96
2023/03/26 12:03:42;;;;;;;39.43;6.37;;;16.70;59.10;;;;;;5072012;28;20227;-96
2023/03/26 12:06:24;;;;;;;25.80;4.93;;;16.70;59.00;;;;;;5070904;28;20244;-95
2023/03/26 12:08:51;;;;;;;40.60;6.57;;;16.70;59.00;;;;;;5084037;28;20228;-92
2023/03/26 12:11:21;;;;;;;39.23;6.20;;;16.70;59.00;;;;;;5068119;28;20218;-94
2023/03/26 12:13:53;;;;;;;33.87;6.23;;;16.80;59.10;;;;;;5080264;28;20633;-95
2023/03/26 12:16:22;;;;;;;35.87;5.67;;;16.80;59.10;;;;;;5075222;28;20210;-96
2023/03/26 12:19:00;;;;;;;24.23;5.13;;;16.80;59.00;;;;;;5077847;28;20301;-93
2023/03/26 12:21:44;;;;;;;21.73;4.60;;;16.80;59.10;;;;;;5088383;28;20204;-95
2023/03/26 12:24:29;;;;;;;24.37;5.20;;;16.80;59.10;;;;;;5072093;28;20294;-95
2023/03/26 12:27:20;;;;;;;31.87;6.07;;;16.80;59.10;;;;;;5075288;28;20208;-95
2023/03/26 12:29:53;;;;;;;24.30;4.97;;;16.80;59.10;;;;;;5082763;28;20217;-96
2023/03/26 12:32:31;;;;;;;35.63;6.23;;;16.80;59.00;;;;;;5075682;28;20208;-94
2023/03/26 12:35:07;;;;;;;28.73;5.63;;;16.90;59.10;;;;;;5073396;28;20231;-95
2023/03/26 12:37:37;;;;;;;29.43;5.93;;;16.80;59.10;;;;;;5068472;28;20309;-93
2023/03/26 12:40:26;;;;;;;42.57;6.97;;;16.80;59.00;;;;;;5069261;28;20209;-89
2023/03/26 12:42:56;;;;;;;35.07;7.10;;;16.80;59.10;;;;;;5076127;28;20231;-96
2023/03/26 12:45:30;;;;;;;40.00;6.90;;;16.80;59.10;;;;;;5072670;28;20292;-93
2023/03/26 12:48:00;;;;;;;35.53;6.10;;;16.80;59.10;;;;;;5066161;28;20210;-92
2023/03/26 12:50:45;;;;;;;32.57;6.27;;;16.80;59.10;;;;;;5094531;28;20198;-95
2023/03/26 12:53:47;;;;;;;26.77;5.90;;;16.80;59.20;;;;;;5079118;28;20211;-94
2023/03/26 12:56:35;;;;;;;32.60;5.90;;;16.70;59.10;;;;;;5059331;28;20207;-93
2023/03/26 12:59:32;;;;;;;19.83;5.50;;;16.80;59.20;;;;;;5081210;28;20206;-93
2023/03/26 13:02:22;;;;;;;23.87;5.90;;;16.90;59.20;;;;;;5076264;28;20232;-94
2023/03/26 13:05:14;;;;;;;35.53;6.17;;;16.90;59.30;;;;;;5059700;28;20226;-93
2023/03/26 13:08:00;;;;;;;40.03;7.10;;;16.80;59.20;;;;;;5055040;28;20677;-93
2023/03/26 13:10:49;;;;;;;44.23;7.23;;;16.80;59.20;;;;;;5068719;28;20203;-93
2023/03/26 13:13:44;;;;;;;47.37;7.37;;;16.80;59.70;;;;;;5073572;28;20205;-93
2023/03/26 13:16:21;;;;;;;37.63;6.00;;;16.80;59.20;;;;;;5070637;28;20299;-92
2023/03/26 13:18:54;;;;;;;35.23;6.23;;;16.80;59.20;;;;;;5087533;28;20209;-93
2023/03/26 13:21:36;;;;;;;33.83;5.87;;;17.00;59.30;;;;;;5093577;28;20309;-93
2023/03/26 13:24:11;;;;;;;38.70;6.80;;;16.80;59.20;;;;;;5093220;28;20255;-92
2023/03/26 13:26:54;;;;;;;43.33;7.40;;;16.80;59.20;;;;;;5093616;28;20226;-93
2023/03/26 13:29:31;;;;;;;44.50;6.93;;;16.80;59.20;;;;;;5085522;28;20685;-93
2023/03/26 13:32:07;;;;;;;39.17;6.47;;;16.90;59.20;;;;;;5073077;28;20206;-92
2023/03/26 13:34:42;;;;;;;39.43;6.30;;;16.90;59.20;;;;;;5070548;28;20219;-93